sensor_id;sensor_type;location;lat;lon;timestamp;P1;durP1;ratioP1;P2;durP2;ratioP2
72198;SDS011;60103;51.014;16.992;2023-02-28T00:01:55;21.90;;;8.00;;
72198;SDS011;60103;51.014;16.992;2023-02-28T00:04:24;24.40;;;7.90;;
72198;SDS011;60103;51.014;16.992;2023-02-28T00:06:53;21.30;;;7.60;;
72198;SDS011;60103;51.014;16.992;2023-02-28T00:09:22;20.00;;;7.70;;
72198;SDS011;60103;51.014;16.992;2023-02-28T00:11:51;20.50;;;8.30;;
72198;SDS011;60103;51.014;16.992;2023-02-28T00:14:19;28.90;;;10.00;;
72198;SDS011;60103;51.014;16.992;2023-02-28T00:16:48;26.30;;;8.50;;
72198;SDS011;60103;51.014;16.992;2023-02-28T00:19:17;24.00;;;8.10;;
72198;SDS011;60103;51.014;16.992;2023-02-28T00:21:46;25.90;;;9.40;;
72198;SDS011;60103;51.014;16.992;2023-02-28T00:24:15;25.40;;;8.50;;
72198;SDS011;60103;51.014;16.992;2023-02-28T00:26:43;22.60;;;8.00;;
72198;SDS011;60103;51.014;16.992;2023-02-28T00:29:13;29.70;;;8.90;;
72198;SDS011;60103;51.014;16.992;2023-02-28T00:31:44;27.50;;;9.40;;
72198;SDS011;60103;51.014;16.992;2023-02-28T00:34:13;27.30;;;10.00;;
72198;SDS011;60103;51.014;16.992;2023-02-28T00:36:42;25.50;;;8.90;;
72198;SDS011;60103;51.014;16.992;2023-02-28T00:39:13;23.30;;;7.50;;
72198;SDS011;60103;51.014;16.992;2023-02-28T00:41:42;21.00;;;7.80;;
72198;SDS011;60103;51.014;16.992;2023-02-28T00:44:11;20.70;;;8.30;;
72198;SDS011;60103;51.014;16.992;2023-02-28T00:46:39;26.20;;;9.30;;
72198;SDS011;60103;51.014;16.992;2023-02-28T00:49:08;19.80;;;7.60;;
72198;SDS011;60103;51.014;16.992;2023-02-28T00:51:37;22.10;;;7.90;;
72198;SDS011;60103;51.014;16.992;2023-02-28T00:54:06;21.70;;;8.60;;
72198;SDS011;60103;51.014;16.992;2023-02-28T00:56:35;24.40;;;9.40;;
72198;SDS011;60103;51.014;16.992;2023-02-28T00:59:04;23.50;;;9.10;;
72198;SDS011;60103;51.014;16.992;2023-02-28T01:01:33;25.70;;;9.90;;
72198;SDS011;60103;51.014;16.992;2023-02-28T01:04:02;20.60;;;8.60;;
72198;SDS011;60103;51.014;16.992;2023-02-28T01:06:31;16.80;;;6.50;;
72198;SDS011;60103;51.014;16.992;2023-02-28T01:09:00;14.70;;;5.70;;
72198;SDS011;60103;51.014;16.992;2023-02-28T01:11:29;11.30;;;4.10;;
72198;SDS011;60103;51.014;16.992;2023-02-28T01:13:58;10.20;;;3.60;;
72198;SDS011;60103;51.014;16.992;2023-02-28T01:16:27;13.60;;;4.30;;
72198;SDS011;60103;51.014;16.992;2023-02-28T01:18:56;11.70;;;4.50;;
72198;SDS011;60103;51.014;16.992;2023-02-28T01:21:25;10.40;;;4.10;;
72198;SDS011;60103;51.014;16.992;2023-02-28T01:23:56;12.00;;;4.70;;
72198;SDS011;60103;51.014;16.992;2023-02-28T01:26:25;11.10;;;4.30;;
72198;SDS011;60103;51.014;16.992;2023-02-28T01:28:54;14.20;;;5.30;;
72198;SDS011;60103;51.014;16.992;2023-02-28T01:31:23;18.00;;;6.20;;
72198;SDS011;60103;51.014;16.992;2023-02-28T01:33:52;16.20;;;5.70;;
72198;SDS011;60103;51.014;16.992;2023-02-28T01:36:22;16.40;;;6.40;;
72198;SDS011;60103;51.014;16.992;2023-02-28T01:38:52;15.60;;;6.10;;
72198;SDS011;60103;51.014;16.992;2023-02-28T01:41:22;18.00;;;6.30;;
72198;SDS011;60103;51.014;16.992;2023-02-28T01:43:55;17.50;;;6.90;;
72198;SDS011;60103;51.014;16.992;2023-02-28T01:46:43;18.60;;;7.00;;
72198;SDS011;60103;51.014;16.992;2023-02-28T01:49:13;17.40;;;7.30;;
72198;SDS011;60103;51.014;16.992;2023-02-28T01:51:44;21.60;;;7.40;;
72198;SDS011;60103;51.014;16.992;2023-02-28T01:54:22;19.30;;;7.20;;
72198;SDS011;60103;51.014;16.992;2023-02-28T01:56:59;17.00;;;7.30;;
72198;SDS011;60103;51.014;16.992;2023-02-28T01:59:43;21.50;;;8.10;;
72198;SDS011;60103;51.014;16.992;2023-02-28T02:02:18;22.00;;;8.30;;
72198;SDS011;60103;51.014;16.992;2023-02-28T02:04:58;19.40;;;6.90;;
72198;SDS011;60103;51.014;16.992;2023-02-28T02:07:31;21.40;;;7.50;;
72198;SDS011;60103;51.014;16.992;2023-02-28T02:15:42;20.10;;;7.40;;
72198;SDS011;60103;51.014;16.992;2023-02-28T02:18:22;17.10;;;6.50;;
72198;SDS011;60103;51.014;16.992;2023-02-28T02:34:45;20.70;;;8.50;;
72198;SDS011;60103;51.014;16.992;2023-02-28T02:40:56;20.90;;;8.40;;
72198;SDS011;60103;51.014;16.992;2023-02-28T02:43:36;21.40;;;8.20;;
72198;SDS011;60103;51.014;16.992;2023-02-28T02:46:10;22.50;;;8.70;;
72198;SDS011;60103;51.014;16.992;2023-02-28T02:48:45;28.90;;;8.80;;
72198;SDS011;60103;51.014;16.992;2023-02-28T02:51:15;22.60;;;8.70;;
72198;SDS011;60103;51.014;16.992;2023-02-28T02:53:49;23.40;;;8.50;;
72198;SDS011;60103;51.014;16.992;2023-02-28T02:56:24;21.40;;;8.50;;
72198;SDS011;60103;51.014;16.992;2023-02-28T02:59:02;23.70;;;9.30;;
72198;SDS011;60103;51.014;16.992;2023-02-28T03:01:32;22.60;;;8.70;;
72198;SDS011;60103;51.014;16.992;2023-02-28T03:04:03;23.30;;;8.60;;
72198;SDS011;60103;51.014;16.992;2023-02-28T03:06:35;24.00;;;7.90;;
72198;SDS011;60103;51.014;16.992;2023-02-28T03:09:04;22.50;;;8.90;;
72198;SDS011;60103;51.014;16.992;2023-02-28T03:11:32;27.70;;;8.40;;
72198;SDS011;60103;51.014;16.992;2023-02-28T03:24:56;25.90;;;8.80;;
72198;SDS011;60103;51.014;16.992;2023-02-28T03:27:48;23.40;;;7.60;;
72198;SDS011;60103;51.014;16.992;2023-02-28T03:32:58;24.10;;;9.00;;
72198;SDS011;60103;51.014;16.992;2023-02-28T03:35:37;17.40;;;7.10;;
72198;SDS011;60103;51.014;16.992;2023-02-28T03:41:17;20.50;;;7.20;;
72198;SDS011;60103;51.014;16.992;2023-02-28T03:43:55;24.80;;;9.40;;
72198;SDS011;60103;51.014;16.992;2023-02-28T03:46:27;20.80;;;8.10;;
72198;SDS011;60103;51.014;16.992;2023-02-28T03:51:40;17.10;;;7.00;;
72198;SDS011;60103;51.014;16.992;2023-02-28T03:54:12;17.50;;;6.60;;
72198;SDS011;60103;51.014;16.992;2023-02-28T03:56:48;20.60;;;7.20;;
72198;SDS011;60103;51.014;16.992;2023-02-28T03:59:22;16.90;;;6.10;;
72198;SDS011;60103;51.014;16.992;2023-02-28T04:01:55;20.30;;;7.20;;
72198;SDS011;60103;51.014;16.992;2023-02-28T04:04:26;23.30;;;9.40;;
72198;SDS011;60103;51.014;16.992;2023-02-28T04:07:05;23.00;;;9.90;;
72198;SDS011;60103;51.014;16.992;2023-02-28T04:09:35;22.50;;;9.00;;
72198;SDS011;60103;51.014;16.992;2023-02-28T04:12:04;22.50;;;9.30;;
72198;SDS011;60103;51.014;16.992;2023-02-28T04:14:33;23.20;;;9.10;;
72198;SDS011;60103;51.014;16.992;2023-02-28T04:17:01;21.20;;;8.40;;
72198;SDS011;60103;51.014;16.992;2023-02-28T04:19:30;22.40;;;8.60;;
72198;SDS011;60103;51.014;16.992;2023-02-28T04:21:59;22.30;;;8.60;;
72198;SDS011;60103;51.014;16.992;2023-02-28T04:24:27;23.40;;;9.00;;
72198;SDS011;60103;51.014;16.992;2023-02-28T04:26:57;24.40;;;9.90;;
72198;SDS011;60103;51.014;16.992;2023-02-28T04:29:27;35.20;;;12.40;;
72198;SDS011;60103;51.014;16.992;2023-02-28T04:31:57;28.70;;;11.00;;
72198;SDS011;60103;51.014;16.992;2023-02-28T04:34:27;25.90;;;10.00;;
72198;SDS011;60103;51.014;16.992;2023-02-28T04:36:58;24.90;;;8.60;;
72198;SDS011;60103;51.014;16.992;2023-02-28T04:39:44;25.80;;;8.80;;
72198;SDS011;60103;51.014;16.992;2023-02-28T04:42:12;20.60;;;8.00;;
72198;SDS011;60103;51.014;16.992;2023-02-28T04:44:41;24.20;;;8.80;;
72198;SDS011;60103;51.014;16.992;2023-02-28T04:47:10;25.30;;;9.30;;
72198;SDS011;60103;51.014;16.992;2023-02-28T04:49:39;29.40;;;10.60;;
72198;SDS011;60103;51.014;16.992;2023-02-28T04:52:09;24.80;;;9.70;;
72198;SDS011;60103;51.014;16.992;2023-02-28T04:54:38;22.90;;;9.00;;
72198;SDS011;60103;51.014;16.992;2023-02-28T04:57:07;22.40;;;9.30;;
72198;SDS011;60103;51.014;16.992;2023-02-28T04:59:35;27.60;;;9.80;;
72198;SDS011;60103;51.014;16.992;2023-02-28T05:02:04;29.60;;;10.50;;
72198;SDS011;60103;51.014;16.992;2023-02-28T05:04:35;32.60;;;13.60;;
72198;SDS011;60103;51.014;16.992;2023-02-28T05:07:04;33.60;;;13.50;;
72198;SDS011;60103;51.014;16.992;2023-02-28T05:09:33;26.30;;;10.60;;
72198;SDS011;60103;51.014;16.992;2023-02-28T05:12:02;26.20;;;11.80;;
72198;SDS011;60103;51.014;16.992;2023-02-28T05:14:31;19.40;;;9.30;;
72198;SDS011;60103;51.014;16.992;2023-02-28T05:17:00;27.00;;;10.10;;
72198;SDS011;60103;51.014;16.992;2023-02-28T05:19:29;22.70;;;9.00;;
72198;SDS011;60103;51.014;16.992;2023-02-28T05:21:57;21.30;;;8.20;;
72198;SDS011;60103;51.014;16.992;2023-02-28T05:24:27;21.60;;;9.90;;
72198;SDS011;60103;51.014;16.992;2023-02-28T05:26:56;21.90;;;9.20;;
72198;SDS011;60103;51.014;16.992;2023-02-28T05:29:26;25.10;;;9.60;;
72198;SDS011;60103;51.014;16.992;2023-02-28T05:31:54;21.90;;;9.60;;
72198;SDS011;60103;51.014;16.992;2023-02-28T05:34:23;24.60;;;9.40;;
72198;SDS011;60103;51.014;16.992;2023-02-28T05:36:52;25.20;;;9.90;;
72198;SDS011;60103;51.014;16.992;2023-02-28T05:39:20;25.30;;;10.10;;
72198;SDS011;60103;51.014;16.992;2023-02-28T05:41:49;26.20;;;10.40;;
72198;SDS011;60103;51.014;16.992;2023-02-28T05:44:18;24.70;;;9.80;;
72198;SDS011;60103;51.014;16.992;2023-02-28T05:46:47;28.90;;;11.30;;
72198;SDS011;60103;51.014;16.992;2023-02-28T05:49:16;25.90;;;10.70;;
72198;SDS011;60103;51.014;16.992;2023-02-28T05:51:44;21.80;;;9.20;;
72198;SDS011;60103;51.014;16.992;2023-02-28T05:54:13;24.10;;;10.30;;
72198;SDS011;60103;51.014;16.992;2023-02-28T05:56:42;29.30;;;11.10;;
72198;SDS011;60103;51.014;16.992;2023-02-28T05:59:13;24.50;;;9.90;;
72198;SDS011;60103;51.014;16.992;2023-02-28T06:01:43;16.00;;;6.20;;
72198;SDS011;60103;51.014;16.992;2023-02-28T06:04:18;18.20;;;7.30;;
72198;SDS011;60103;51.014;16.992;2023-02-28T06:07:03;21.30;;;9.00;;
72198;SDS011;60103;51.014;16.992;2023-02-28T06:09:33;23.50;;;8.30;;
72198;SDS011;60103;51.014;16.992;2023-02-28T06:12:03;20.10;;;9.20;;
72198;SDS011;60103;51.014;16.992;2023-02-28T06:14:34;21.90;;;9.50;;
72198;SDS011;60103;51.014;16.992;2023-02-28T06:17:03;21.40;;;9.00;;
72198;SDS011;60103;51.014;16.992;2023-02-28T06:19:32;25.60;;;10.20;;
72198;SDS011;60103;51.014;16.992;2023-02-28T06:22:02;27.10;;;11.70;;
72198;SDS011;60103;51.014;16.992;2023-02-28T06:24:30;28.50;;;11.40;;
72198;SDS011;60103;51.014;16.992;2023-02-28T06:27:00;30.50;;;11.10;;
72198;SDS011;60103;51.014;16.992;2023-02-28T06:29:34;27.60;;;11.00;;
72198;SDS011;60103;51.014;16.992;2023-02-28T06:32:03;23.50;;;9.90;;
72198;SDS011;60103;51.014;16.992;2023-02-28T06:34:32;25.10;;;9.30;;
72198;SDS011;60103;51.014;16.992;2023-02-28T06:37:02;22.10;;;7.90;;
72198;SDS011;60103;51.014;16.992;2023-02-28T06:39:31;20.10;;;8.80;;
72198;SDS011;60103;51.014;16.992;2023-02-28T06:42:01;23.90;;;9.20;;
72198;SDS011;60103;51.014;16.992;2023-02-28T06:44:30;21.50;;;9.20;;
72198;SDS011;60103;51.014;16.992;2023-02-28T06:47:04;19.70;;;8.30;;
72198;SDS011;60103;51.014;16.992;2023-02-28T06:49:34;18.20;;;7.50;;
72198;SDS011;60103;51.014;16.992;2023-02-28T06:52:03;21.10;;;7.80;;
72198;SDS011;60103;51.014;16.992;2023-02-28T06:54:32;14.90;;;6.70;;
72198;SDS011;60103;51.014;16.992;2023-02-28T06:57:01;17.30;;;7.70;;
72198;SDS011;60103;51.014;16.992;2023-02-28T06:59:31;19.30;;;8.20;;
72198;SDS011;60103;51.014;16.992;2023-02-28T07:01:59;17.30;;;7.00;;
72198;SDS011;60103;51.014;16.992;2023-02-28T07:04:30;19.60;;;7.40;;
72198;SDS011;60103;51.014;16.992;2023-02-28T07:06:59;18.20;;;8.00;;
72198;SDS011;60103;51.014;16.992;2023-02-28T07:09:27;20.90;;;8.60;;
72198;SDS011;60103;51.014;16.992;2023-02-28T07:11:58;23.60;;;8.90;;
72198;SDS011;60103;51.014;16.992;2023-02-28T07:14:28;22.70;;;7.90;;
72198;SDS011;60103;51.014;16.992;2023-02-28T07:16:56;18.40;;;8.30;;
72198;SDS011;60103;51.014;16.992;2023-02-28T07:19:25;18.00;;;7.40;;
72198;SDS011;60103;51.014;16.992;2023-02-28T07:21:54;19.20;;;8.30;;
72198;SDS011;60103;51.014;16.992;2023-02-28T07:24:23;20.20;;;7.80;;
72198;SDS011;60103;51.014;16.992;2023-02-28T07:26:56;16.10;;;7.10;;
72198;SDS011;60103;51.014;16.992;2023-02-28T07:29:25;16.10;;;7.60;;
72198;SDS011;60103;51.014;16.992;2023-02-28T07:31:55;14.30;;;6.80;;
72198;SDS011;60103;51.014;16.992;2023-02-28T07:34:24;16.80;;;7.70;;
72198;SDS011;60103;51.014;16.992;2023-02-28T07:36:53;17.80;;;7.10;;
72198;SDS011;60103;51.014;16.992;2023-02-28T07:39:22;15.10;;;6.30;;
72198;SDS011;60103;51.014;16.992;2023-02-28T07:41:51;17.00;;;6.70;;
72198;SDS011;60103;51.014;16.992;2023-02-28T07:44:23;21.40;;;8.00;;
72198;SDS011;60103;51.014;16.992;2023-02-28T07:46:52;16.60;;;7.20;;
72198;SDS011;60103;51.014;16.992;2023-02-28T07:49:21;21.90;;;7.80;;
72198;SDS011;60103;51.014;16.992;2023-02-28T07:51:50;21.70;;;7.90;;
72198;SDS011;60103;51.014;16.992;2023-02-28T07:54:19;18.60;;;7.10;;
72198;SDS011;60103;51.014;16.992;2023-02-28T07:56:47;17.00;;;7.00;;
72198;SDS011;60103;51.014;16.992;2023-02-28T07:59:16;18.40;;;7.50;;
72198;SDS011;60103;51.014;16.992;2023-02-28T08:01:45;18.40;;;7.10;;
72198;SDS011;60103;51.014;16.992;2023-02-28T08:04:13;18.80;;;6.50;;
72198;SDS011;60103;51.014;16.992;2023-02-28T08:06:42;16.00;;;5.30;;
72198;SDS011;60103;51.014;16.992;2023-02-28T08:09:11;14.80;;;6.00;;
72198;SDS011;60103;51.014;16.992;2023-02-28T08:11:40;17.00;;;6.60;;
72198;SDS011;60103;51.014;16.992;2023-02-28T08:14:09;19.90;;;7.70;;
72198;SDS011;60103;51.014;16.992;2023-02-28T08:16:37;14.80;;;5.90;;
72198;SDS011;60103;51.014;16.992;2023-02-28T08:19:07;14.30;;;6.30;;
72198;SDS011;60103;51.014;16.992;2023-02-28T08:21:35;15.00;;;6.60;;
72198;SDS011;60103;51.014;16.992;2023-02-28T08:24:04;12.20;;;5.20;;
72198;SDS011;60103;51.014;16.992;2023-02-28T08:26:33;12.60;;;6.00;;
72198;SDS011;60103;51.014;16.992;2023-02-28T08:29:02;14.00;;;6.40;;
72198;SDS011;60103;51.014;16.992;2023-02-28T08:31:31;13.40;;;5.70;;
72198;SDS011;60103;51.014;16.992;2023-02-28T08:34:00;13.40;;;6.00;;
72198;SDS011;60103;51.014;16.992;2023-02-28T08:36:29;15.00;;;5.90;;
72198;SDS011;60103;51.014;16.992;2023-02-28T08:38:58;14.30;;;6.10;;
72198;SDS011;60103;51.014;16.992;2023-02-28T08:41:28;13.80;;;6.50;;
72198;SDS011;60103;51.014;16.992;2023-02-28T08:43:58;14.00;;;6.40;;
72198;SDS011;60103;51.014;16.992;2023-02-28T08:46:27;14.50;;;5.80;;
72198;SDS011;60103;51.014;16.992;2023-02-28T08:48:56;12.30;;;5.90;;
72198;SDS011;60103;51.014;16.992;2023-02-28T08:51:29;14.90;;;6.00;;
72198;SDS011;60103;51.014;16.992;2023-02-28T08:53:59;14.60;;;6.10;;
72198;SDS011;60103;51.014;16.992;2023-02-28T08:56:28;13.30;;;5.60;;
72198;SDS011;60103;51.014;16.992;2023-02-28T08:58:57;13.00;;;5.80;;
72198;SDS011;60103;51.014;16.992;2023-02-28T09:01:27;14.50;;;6.20;;
72198;SDS011;60103;51.014;16.992;2023-02-28T09:03:57;15.70;;;6.40;;
72198;SDS011;60103;51.014;16.992;2023-02-28T09:06:26;13.60;;;5.50;;
72198;SDS011;60103;51.014;16.992;2023-02-28T09:08:57;15.40;;;6.30;;
72198;SDS011;60103;51.014;16.992;2023-02-28T09:11:29;13.60;;;5.80;;
72198;SDS011;60103;51.014;16.992;2023-02-28T09:13:58;14.70;;;6.30;;
72198;SDS011;60103;51.014;16.992;2023-02-28T09:16:28;16.40;;;6.30;;
72198;SDS011;60103;51.014;16.992;2023-02-28T09:18:59;13.40;;;6.20;;
72198;SDS011;60103;51.014;16.992;2023-02-28T09:21:28;13.80;;;6.10;;
72198;SDS011;60103;51.014;16.992;2023-02-28T09:23:58;13.80;;;6.40;;
72198;SDS011;60103;51.014;16.992;2023-02-28T09:26:27;13.50;;;6.00;;
72198;SDS011;60103;51.014;16.992;2023-02-28T09:29:09;13.40;;;5.80;;
72198;SDS011;60103;51.014;16.992;2023-02-28T09:31:39;15.70;;;6.80;;
72198;SDS011;60103;51.014;16.992;2023-02-28T09:34:08;14.90;;;6.50;;
72198;SDS011;60103;51.014;16.992;2023-02-28T09:36:37;12.70;;;6.00;;
72198;SDS011;60103;51.014;16.992;2023-02-28T09:39:13;16.70;;;7.00;;
72198;SDS011;60103;51.014;16.992;2023-02-28T09:41:44;12.00;;;4.30;;
72198;SDS011;60103;51.014;16.992;2023-02-28T09:44:22;15.80;;;6.00;;
72198;SDS011;60103;51.014;16.992;2023-02-28T09:46:56;12.60;;;6.00;;
72198;SDS011;60103;51.014;16.992;2023-02-28T09:49:31;12.40;;;5.70;;
72198;SDS011;60103;51.014;16.992;2023-02-28T09:52:05;9.90;;;3.90;;
72198;SDS011;60103;51.014;16.992;2023-02-28T09:54:54;13.40;;;5.90;;
72198;SDS011;60103;51.014;16.992;2023-02-28T09:57:36;11.80;;;5.50;;
72198;SDS011;60103;51.014;16.992;2023-02-28T10:00:23;12.10;;;5.50;;
72198;SDS011;60103;51.014;16.992;2023-02-28T10:08:13;12.60;;;5.90;;
72198;SDS011;60103;51.014;16.992;2023-02-28T10:10:45;13.40;;;6.00;;
72198;SDS011;60103;51.014;16.992;2023-02-28T10:16:35;13.20;;;5.30;;
72198;SDS011;60103;51.014;16.992;2023-02-28T10:19:13;13.00;;;5.70;;
72198;SDS011;60103;51.014;16.992;2023-02-28T10:21:46;11.90;;;5.10;;
72198;SDS011;60103;51.014;16.992;2023-02-28T10:24:20;13.30;;;5.80;;
72198;SDS011;60103;51.014;16.992;2023-02-28T10:27:06;11.60;;;4.10;;
72198;SDS011;60103;51.014;16.992;2023-02-28T10:29:41;12.60;;;5.60;;
72198;SDS011;60103;51.014;16.992;2023-02-28T10:32:14;13.00;;;5.80;;
72198;SDS011;60103;51.014;16.992;2023-02-28T10:34:52;11.10;;;5.30;;
72198;SDS011;60103;51.014;16.992;2023-02-28T10:37:27;10.60;;;4.60;;
72198;SDS011;60103;51.014;16.992;2023-02-28T10:39:56;11.60;;;4.70;;
72198;SDS011;60103;51.014;16.992;2023-02-28T10:42:29;13.80;;;6.00;;
72198;SDS011;60103;51.014;16.992;2023-02-28T10:45:14;13.70;;;6.10;;
72198;SDS011;60103;51.014;16.992;2023-02-28T10:47:57;13.60;;;5.30;;
72198;SDS011;60103;51.014;16.992;2023-02-28T10:50:50;12.90;;;5.10;;
72198;SDS011;60103;51.014;16.992;2023-02-28T10:56:01;13.20;;;5.20;;
72198;SDS011;60103;51.014;16.992;2023-02-28T10:58:44;12.10;;;4.90;;
72198;SDS011;60103;51.014;16.992;2023-02-28T11:04:01;12.40;;;5.10;;
72198;SDS011;60103;51.014;16.992;2023-02-28T11:06:32;12.60;;;5.20;;
72198;SDS011;60103;51.014;16.992;2023-02-28T11:09:06;13.20;;;6.00;;
72198;SDS011;60103;51.014;16.992;2023-02-28T11:11:49;13.00;;;5.50;;
72198;SDS011;60103;51.014;16.992;2023-02-28T11:14:23;11.10;;;4.70;;
72198;SDS011;60103;51.014;16.992;2023-02-28T11:16:54;14.80;;;6.70;;
72198;SDS011;60103;51.014;16.992;2023-02-28T11:19:27;14.90;;;6.00;;
72198;SDS011;60103;51.014;16.992;2023-02-28T11:21:59;13.30;;;6.20;;
72198;SDS011;60103;51.014;16.992;2023-02-28T11:27:00;14.50;;;7.00;;
72198;SDS011;60103;51.014;16.992;2023-02-28T11:29:30;13.30;;;6.20;;
72198;SDS011;60103;51.014;16.992;2023-02-28T11:34:59;15.30;;;5.90;;
72198;SDS011;60103;51.014;16.992;2023-02-28T11:37:38;14.10;;;6.20;;
72198;SDS011;60103;51.014;16.992;2023-02-28T11:45:44;12.20;;;5.10;;
72198;SDS011;60103;51.014;16.992;2023-02-28T11:56:58;14.70;;;5.30;;
72198;SDS011;60103;51.014;16.992;2023-02-28T12:02:28;13.70;;;5.40;;
72198;SDS011;60103;51.014;16.992;2023-02-28T12:07:47;11.50;;;5.00;;
72198;SDS011;60103;51.014;16.992;2023-02-28T12:10:30;11.60;;;4.90;;
72198;SDS011;60103;51.014;16.992;2023-02-28T12:13:21;12.50;;;5.50;;
72198;SDS011;60103;51.014;16.992;2023-02-28T12:24:01;11.00;;;4.70;;
72198;SDS011;60103;51.014;16.992;2023-02-28T12:31:48;13.50;;;5.70;;
72198;SDS011;60103;51.014;16.992;2023-02-28T12:34:22;11.90;;;5.10;;
72198;SDS011;60103;51.014;16.992;2023-02-28T12:36:55;10.00;;;3.90;;
72198;SDS011;60103;51.014;16.992;2023-02-28T12:39:31;14.90;;;5.70;;
72198;SDS011;60103;51.014;16.992;2023-02-28T12:42:24;14.20;;;5.70;;
72198;SDS011;60103;51.014;16.992;2023-02-28T12:45:41;14.00;;;5.50;;
72198;SDS011;60103;51.014;16.992;2023-02-28T12:48:14;16.10;;;6.90;;
72198;SDS011;60103;51.014;16.992;2023-02-28T12:50:47;12.60;;;5.60;;
72198;SDS011;60103;51.014;16.992;2023-02-28T12:53:28;14.60;;;5.60;;
72198;SDS011;60103;51.014;16.992;2023-02-28T12:58:47;13.30;;;5.60;;
72198;SDS011;60103;51.014;16.992;2023-02-28T13:07:18;13.10;;;5.30;;
72198;SDS011;60103;51.014;16.992;2023-02-28T13:10:05;15.00;;;5.60;;
72198;SDS011;60103;51.014;16.992;2023-02-28T13:12:35;13.60;;;5.70;;
72198;SDS011;60103;51.014;16.992;2023-02-28T13:15:06;14.90;;;5.30;;
72198;SDS011;60103;51.014;16.992;2023-02-28T13:17:40;16.20;;;4.80;;
72198;SDS011;60103;51.014;16.992;2023-02-28T13:20:17;13.90;;;5.60;;
72198;SDS011;60103;51.014;16.992;2023-02-28T13:22:49;13.80;;;5.20;;
72198;SDS011;60103;51.014;16.992;2023-02-28T13:28:02;12.70;;;5.40;;
72198;SDS011;60103;51.014;16.992;2023-02-28T13:36:05;12.70;;;5.40;;
72198;SDS011;60103;51.014;16.992;2023-02-28T13:38:42;13.40;;;5.50;;
72198;SDS011;60103;51.014;16.992;2023-02-28T13:49:31;14.60;;;5.50;;
72198;SDS011;60103;51.014;16.992;2023-02-28T13:54:56;14.10;;;5.60;;
72198;SDS011;60103;51.014;16.992;2023-02-28T13:57:33;13.80;;;6.20;;
72198;SDS011;60103;51.014;16.992;2023-02-28T14:03:15;14.60;;;6.30;;
72198;SDS011;60103;51.014;16.992;2023-02-28T14:05:47;15.60;;;6.70;;
72198;SDS011;60103;51.014;16.992;2023-02-28T14:08:36;19.30;;;8.40;;
72198;SDS011;60103;51.014;16.992;2023-02-28T14:11:08;14.80;;;5.80;;
72198;SDS011;60103;51.014;16.992;2023-02-28T14:13:45;16.30;;;6.70;;
72198;SDS011;60103;51.014;16.992;2023-02-28T14:16:23;16.10;;;7.20;;
72198;SDS011;60103;51.014;16.992;2023-02-28T14:24:02;18.40;;;7.80;;
72198;SDS011;60103;51.014;16.992;2023-02-28T14:37:54;15.80;;;6.70;;
72198;SDS011;60103;51.014;16.992;2023-02-28T14:40:29;16.50;;;6.80;;
72198;SDS011;60103;51.014;16.992;2023-02-28T14:43:00;17.60;;;6.20;;
72198;SDS011;60103;51.014;16.992;2023-02-28T14:45:31;14.90;;;6.50;;
72198;SDS011;60103;51.014;16.992;2023-02-28T14:48:02;13.90;;;5.80;;
72198;SDS011;60103;51.014;16.992;2023-02-28T14:50:34;15.10;;;5.60;;
72198;SDS011;60103;51.014;16.992;2023-02-28T14:53:04;17.90;;;7.80;;
72198;SDS011;60103;51.014;16.992;2023-02-28T14:55:43;16.00;;;6.10;;
72198;SDS011;60103;51.014;16.992;2023-02-28T14:58:26;16.40;;;6.50;;
72198;SDS011;60103;51.014;16.992;2023-02-28T15:00:59;18.80;;;7.20;;
72198;SDS011;60103;51.014;16.992;2023-02-28T15:03:33;18.80;;;7.70;;
72198;SDS011;60103;51.014;16.992;2023-02-28T15:06:04;19.90;;;7.60;;
72198;SDS011;60103;51.014;16.992;2023-02-28T15:08:40;21.90;;;8.30;;
72198;SDS011;60103;51.014;16.992;2023-02-28T15:11:16;18.90;;;6.90;;
72198;SDS011;60103;51.014;16.992;2023-02-28T15:13:53;15.80;;;7.20;;
72198;SDS011;60103;51.014;16.992;2023-02-28T15:16:28;18.50;;;7.40;;
72198;SDS011;60103;51.014;16.992;2023-02-28T15:21:44;20.00;;;7.80;;
72198;SDS011;60103;51.014;16.992;2023-02-28T15:24:18;20.80;;;7.90;;
72198;SDS011;60103;51.014;16.992;2023-02-28T15:27:00;19.30;;;7.50;;
72198;SDS011;60103;51.014;16.992;2023-02-28T15:29:43;20.00;;;6.90;;
72198;SDS011;60103;51.014;16.992;2023-02-28T15:32:29;20.20;;;7.40;;
72198;SDS011;60103;51.014;16.992;2023-02-28T15:34:59;18.90;;;7.70;;
72198;SDS011;60103;51.014;16.992;2023-02-28T15:38:22;18.80;;;7.40;;
72198;SDS011;60103;51.014;16.992;2023-02-28T15:40:57;22.70;;;7.90;;
72198;SDS011;60103;51.014;16.992;2023-02-28T15:43:30;19.00;;;7.40;;
72198;SDS011;60103;51.014;16.992;2023-02-28T15:46:05;22.40;;;8.60;;
72198;SDS011;60103;51.014;16.992;2023-02-28T15:48:37;21.90;;;8.90;;
72198;SDS011;60103;51.014;16.992;2023-02-28T15:53:45;20.20;;;6.90;;
72198;SDS011;60103;51.014;16.992;2023-02-28T15:56:22;19.70;;;7.30;;
72198;SDS011;60103;51.014;16.992;2023-02-28T15:58:55;21.00;;;8.80;;
72198;SDS011;60103;51.014;16.992;2023-02-28T16:03:54;22.70;;;8.70;;
72198;SDS011;60103;51.014;16.992;2023-02-28T16:06:33;21.10;;;8.90;;
72198;SDS011;60103;51.014;16.992;2023-02-28T16:09:13;21.50;;;8.80;;
72198;SDS011;60103;51.014;16.992;2023-02-28T16:11:49;23.30;;;9.00;;
72198;SDS011;60103;51.014;16.992;2023-02-28T16:14:23;23.20;;;9.40;;
72198;SDS011;60103;51.014;16.992;2023-02-28T16:16:57;23.90;;;9.50;;
72198;SDS011;60103;51.014;16.992;2023-02-28T16:19:32;25.60;;;9.70;;
72198;SDS011;60103;51.014;16.992;2023-02-28T16:22:02;20.70;;;8.30;;
72198;SDS011;60103;51.014;16.992;2023-02-28T16:24:32;22.80;;;8.80;;
72198;SDS011;60103;51.014;16.992;2023-02-28T16:27:18;28.30;;;10.30;;
72198;SDS011;60103;51.014;16.992;2023-02-28T16:29:59;23.00;;;9.10;;
72198;SDS011;60103;51.014;16.992;2023-02-28T16:32:36;29.10;;;10.30;;
72198;SDS011;60103;51.014;16.992;2023-02-28T16:35:09;26.00;;;10.40;;
72198;SDS011;60103;51.014;16.992;2023-02-28T16:37:41;26.40;;;10.30;;
72198;SDS011;60103;51.014;16.992;2023-02-28T16:40:14;32.60;;;12.60;;
72198;SDS011;60103;51.014;16.992;2023-02-28T16:42:44;37.70;;;14.50;;
72198;SDS011;60103;51.014;16.992;2023-02-28T16:45:18;41.70;;;14.60;;
72198;SDS011;60103;51.014;16.992;2023-02-28T16:47:55;34.50;;;14.40;;
72198;SDS011;60103;51.014;16.992;2023-02-28T16:50:28;40.60;;;14.30;;
72198;SDS011;60103;51.014;16.992;2023-02-28T16:52:59;35.90;;;13.70;;
72198;SDS011;60103;51.014;16.992;2023-02-28T16:55:29;32.20;;;14.00;;
72198;SDS011;60103;51.014;16.992;2023-02-28T16:57:58;32.90;;;13.90;;
72198;SDS011;60103;51.014;16.992;2023-02-28T17:00:30;29.20;;;11.10;;
72198;SDS011;60103;51.014;16.992;2023-02-28T17:03:03;28.90;;;11.70;;
72198;SDS011;60103;51.014;16.992;2023-02-28T17:05:36;25.80;;;10.50;;
72198;SDS011;60103;51.014;16.992;2023-02-28T17:08:08;27.70;;;10.70;;
72198;SDS011;60103;51.014;16.992;2023-02-28T17:10:38;25.10;;;10.10;;
72198;SDS011;60103;51.014;16.992;2023-02-28T17:13:07;27.70;;;11.00;;
72198;SDS011;60103;51.014;16.992;2023-02-28T17:15:44;26.10;;;10.00;;
72198;SDS011;60103;51.014;16.992;2023-02-28T17:18:15;24.40;;;9.20;;
72198;SDS011;60103;51.014;16.992;2023-02-28T17:20:49;26.00;;;10.80;;
72198;SDS011;60103;51.014;16.992;2023-02-28T17:23:19;24.20;;;10.30;;